createdAt,value
2017-09-16T00:00:05.316Z,91.22
2017-09-16T00:00:31.445Z,91.22
2017-09-16T00:00:57.575Z,91.31
2017-09-16T00:01:23.706Z,91.31
2017-09-16T00:01:49.837Z,91.31
2017-09-16T00:02:15.964Z,91.5
2017-09-16T00:02:42.093Z,91.13
2017-09-16T00:03:08.223Z,91.31
2017-09-16T00:03:34.352Z,91.31
2017-09-16T00:04:00.480Z,91.03
2017-09-16T00:04:26.610Z,91.03
2017-09-16T00:04:52.739Z,91.31
2017-09-16T00:05:18.868Z,91.03
2017-09-16T00:05:44.995Z,91.03
2017-09-16T00:06:11.125Z,91.41
2017-09-16T00:06:37.254Z,91.41
2017-09-16T00:07:03.383Z,91.79
2017-09-16T00:07:29.513Z,91.79
2017-09-16T00:07:55.643Z,91.79
2017-09-16T00:08:21.774Z,91.79
2017-09-16T00:08:47.902Z,91.5
2017-09-16T00:09:14.031Z,91.5
2017-09-16T00:09:40.160Z,91.5
2017-09-16T00:10:06.289Z,91.5
2017-09-16T00:10:32.443Z,91.03
2017-09-16T00:10:58.570Z,91.13
2017-09-16T00:11:24.699Z,91.03
2017-09-16T00:11:50.827Z,91.22
2017-09-16T00:12:16.954Z,91.6
2017-09-16T00:12:43.083Z,90.84
2017-09-16T00:13:09.214Z,90.64
2017-09-16T00:13:35.342Z,90.45
2017-09-16T00:14:01.471Z,90.84
2017-09-16T00:14:27.598Z,90.74
2017-09-16T00:14:53.728Z,90.84
2017-09-16T00:15:19.857Z,90.55
2017-09-16T00:15:46.009Z,90.84
2017-09-16T00:16:12.139Z,90.74
2017-09-16T00:16:38.267Z,90.45
2017-09-16T00:17:04.396Z,90.45
2017-09-16T00:17:30.526Z,90.45
2017-09-16T00:17:56.679Z,90.84
2017-09-16T00:18:22.806Z,90.74
2017-09-16T00:18:48.935Z,91.6
2017-09-16T00:19:15.063Z,90.93
2017-09-16T00:19:41.192Z,91.31
2017-09-16T00:20:07.321Z,91.41
2017-09-16T00:20:33.450Z,91.31
2017-09-16T00:20:59.579Z,91.41
2017-09-16T00:21:25.707Z,91.5
2017-09-16T00:21:51.837Z,91.41
2017-09-16T00:22:17.965Z,91.41
2017-09-16T00:22:44.096Z,91.5
2017-09-16T00:23:10.246Z,91.03
2017-09-16T00:23:36.376Z,91.13
2017-09-16T00:24:02.506Z,91.03
2017-09-16T00:24:28.635Z,91.13
2017-09-16T00:24:54.764Z,91.41
2017-09-16T00:25:20.893Z,91.31
2017-09-16T00:25:47.022Z,91.5
2017-09-16T00:26:13.151Z,91.88
2017-09-16T00:26:39.281Z,91.98
2017-09-16T00:27:05.410Z,91.88
2017-09-16T00:27:31.538Z,91.69
2017-09-16T00:27:57.668Z,91.6
2017-09-16T00:28:23.797Z,91.88
2017-09-16T00:28:49.925Z,91.98
2017-09-16T00:29:16.055Z,91.6
2017-09-16T00:29:42.184Z,91.79
2017-09-16T00:30:08.313Z,91.79
2017-09-16T00:30:34.443Z,91.6
2017-09-16T00:31:00.571Z,91.5
2017-09-16T00:31:26.701Z,91.79
2017-09-16T00:31:52.829Z,91.79
2017-09-16T00:32:18.958Z,91.5
2017-09-16T00:32:45.088Z,91.41
2017-09-16T00:33:11.216Z,91.6
2017-09-16T00:33:37.345Z,91.5
2017-09-16T00:34:03.475Z,91.22
2017-09-16T00:34:29.627Z,91.31
2017-09-16T00:34:55.755Z,92.08
2017-09-16T00:35:21.884Z,91.79
2017-09-16T00:35:48.014Z,91.79
2017-09-16T00:36:14.143Z,91.41
2017-09-16T00:36:40.273Z,91.69
2017-09-16T00:37:06.402Z,91.41
2017-09-16T00:37:32.532Z,91.79
2017-09-16T00:37:58.660Z,91.79
2017-09-16T00:38:24.790Z,92.17
2017-09-16T00:38:50.918Z,92.46
2017-09-16T00:39:17.046Z,92.27
2017-09-16T00:39:43.176Z,92.36
2017-09-16T00:40:09.305Z,92.17
2017-09-16T00:40:35.434Z,91.98
2017-09-16T00:41:01.563Z,92.36
2017-09-16T00:41:27.693Z,92.27
2017-09-16T00:41:53.822Z,92.17
2017-09-16T00:42:19.950Z,92.27
2017-09-16T00:42:46.085Z,92.17
2017-09-16T00:43:12.208Z,92.08
2017-09-16T00:43:38.337Z,91.98
2017-09-16T00:44:04.468Z,92.27
2017-09-16T00:44:30.618Z,92.08
2017-09-16T00:44:56.746Z,92.08
2017-09-16T00:45:22.876Z,92.08
2017-09-16T00:45:49.006Z,92.27
2017-09-16T00:46:15.134Z,92.27
2017-09-16T00:46:41.263Z,92.36
2017-09-16T00:47:07.392Z,91.69
2017-09-16T00:47:33.520Z,92.08
2017-09-16T00:47:59.649Z,92.36
2017-09-16T00:48:25.779Z,92.55
2017-09-16T00:48:51.906Z,92.27
2017-09-16T00:49:18.036Z,92.17
2017-09-16T00:49:44.164Z,92.17
2017-09-16T00:50:10.294Z,91.98
2017-09-16T00:50:36.424Z,92.17
2017-09-16T00:51:02.576Z,92.17
2017-09-16T00:51:28.704Z,92.17
2017-09-16T00:51:54.831Z,92.17
2017-09-16T00:52:20.961Z,92.08
2017-09-16T00:52:47.090Z,92.36
2017-09-16T00:53:13.218Z,92.65
2017-09-16T00:53:39.347Z,92.27
2017-09-16T00:54:05.476Z,92.27
2017-09-16T00:54:31.613Z,92.08
2017-09-16T00:54:57.780Z,92.65
2017-09-16T00:55:23.909Z,92.46
2017-09-16T00:55:50.037Z,92.46
2017-09-16T00:56:16.167Z,92.46
2017-09-16T00:56:42.295Z,92.27
2017-09-16T00:57:08.425Z,92.03
2017-09-16T00:57:34.554Z,92.32
2017-09-16T00:58:00.683Z,92.36
2017-09-16T00:58:26.812Z,92.03
2017-09-16T00:58:52.941Z,92.89
2017-09-16T00:59:19.071Z,92.22
2017-09-16T00:59:45.199Z,92.5
2017-09-16T01:00:11.327Z,92.13
2017-09-16T01:00:37.455Z,92.79
2017-09-16T01:01:03.583Z,92.5
2017-09-16T01:01:29.713Z,92.6
2017-09-16T01:01:55.864Z,92.41
2017-09-16T01:02:21.993Z,93.27
2017-09-16T01:02:48.123Z,92.79
2017-09-16T01:03:14.252Z,93.37
2017-09-16T01:03:40.381Z,92.79
2017-09-16T01:04:06.510Z,92.22
2017-09-16T01:04:32.639Z,92.89
2017-09-16T01:04:58.768Z,92.89
2017-09-16T01:05:24.896Z,92.69
2017-09-16T01:05:51.027Z,92.6
2017-09-16T01:06:17.155Z,92.89
2017-09-16T01:06:43.284Z,92.89
2017-09-16T01:07:09.413Z,92.89
2017-09-16T01:07:35.543Z,93.08
2017-09-16T01:08:01.672Z,92.69
2017-09-16T01:08:27.824Z,92.79
2017-09-16T01:08:53.955Z,92.32
2017-09-16T01:09:20.081Z,92.5
2017-09-16T01:09:46.210Z,92.98
2017-09-16T01:10:12.339Z,93.08
2017-09-16T01:10:38.489Z,92.89
2017-09-16T01:11:04.618Z,92.89
2017-09-16T01:11:30.747Z,93.08
2017-09-16T01:11:56.876Z,93.08
2017-09-16T01:12:23.005Z,92.98
2017-09-16T01:12:49.134Z,92.98
2017-09-16T01:13:15.262Z,93.08
2017-09-16T01:13:41.391Z,93.27
2017-09-16T01:14:07.520Z,93.08
2017-09-16T01:14:33.655Z,93.17
2017-09-16T01:14:59.776Z,93.84
2017-09-16T01:15:25.907Z,93.74
2017-09-16T01:15:52.059Z,93.65
2017-09-16T01:16:18.187Z,93.65
2017-09-16T01:16:44.316Z,93.84
2017-09-16T01:17:10.468Z,93.84
2017-09-16T01:17:36.596Z,93.84
2017-09-16T01:18:02.725Z,93.65
2017-09-16T01:18:28.855Z,93.37
2017-09-16T01:18:54.982Z,93.55
2017-09-16T01:19:21.112Z,93.74
2017-09-16T01:19:47.243Z,93.46
2017-09-16T01:20:13.370Z,93.55
2017-09-16T01:20:39.499Z,93.55
2017-09-16T01:21:05.628Z,93.46
2017-09-16T01:21:31.757Z,93.37
2017-09-16T01:21:57.886Z,93.55
2017-09-16T01:22:24.015Z,93.46
2017-09-16T01:22:50.144Z,93.84
2017-09-16T01:23:16.273Z,93.46
2017-09-16T01:23:42.403Z,93.27
2017-09-16T01:24:08.532Z,93.84
2017-09-16T01:24:34.660Z,93.46
2017-09-16T01:25:00.787Z,93.55
2017-09-16T01:25:26.918Z,93.46
2017-09-16T01:25:53.048Z,93.65
2017-09-16T01:26:19.175Z,93.55
2017-09-16T01:26:45.304Z,94.03
2017-09-16T01:27:11.434Z,94.13
2017-09-16T01:27:37.587Z,93.37
2017-09-16T01:28:03.714Z,93.93
2017-09-16T01:28:29.843Z,93.84
2017-09-16T01:28:55.972Z,93.84
2017-09-16T01:29:22.101Z,93.84
2017-09-16T01:29:48.252Z,93.84
2017-09-16T01:30:14.376Z,93.84
2017-09-16T01:30:40.508Z,93.65
2017-09-16T01:31:06.637Z,93.27
2017-09-16T01:31:32.766Z,93.55
2017-09-16T01:31:58.895Z,93.65
2017-09-16T01:32:25.025Z,93.55
2017-09-16T01:32:51.199Z,93.46
2017-09-16T01:33:17.327Z,93.93
2017-09-16T01:33:43.455Z,93.46
2017-09-16T01:34:09.584Z,93.46
2017-09-16T01:34:35.713Z,93.55
2017-09-16T01:35:01.842Z,93.93
2017-09-16T01:35:27.972Z,93.93
2017-09-16T01:35:54.100Z,93.84
2017-09-16T01:36:20.228Z,93.65
2017-09-16T01:36:46.362Z,93.74
2017-09-16T01:37:12.486Z,93.55
2017-09-16T01:37:38.615Z,93.55
2017-09-16T01:38:04.744Z,94.13
2017-09-16T01:38:30.873Z,93.93
2017-09-16T01:38:57.002Z,93.93
2017-09-16T01:39:23.131Z,93.84
2017-09-16T01:39:49.258Z,93.84
2017-09-16T01:40:15.410Z,93.65
2017-09-16T01:40:41.538Z,93.93
2017-09-16T01:41:07.667Z,93.55
2017-09-16T01:41:33.796Z,93.55
2017-09-16T01:41:59.929Z,93.55
2017-09-16T01:42:26.078Z,93.37
2017-09-16T01:42:52.205Z,93.55
2017-09-16T01:43:18.334Z,93.46
2017-09-16T01:43:44.463Z,93.65
2017-09-16T01:44:10.593Z,93.55
2017-09-16T01:44:36.722Z,93.55
2017-09-16T01:45:02.850Z,93.27
2017-09-16T01:45:28.978Z,93.55
2017-09-16T01:45:55.107Z,93.27
2017-09-16T01:46:21.259Z,93.27
2017-09-16T01:46:47.388Z,93.55
2017-09-16T01:47:13.516Z,93.27
2017-09-16T01:47:39.645Z,93.27
2017-09-16T01:48:05.775Z,93.27
2017-09-16T01:48:31.903Z,93.55
2017-09-16T01:48:58.031Z,93.08
2017-09-16T01:49:24.159Z,93.27
2017-09-16T01:49:50.310Z,93.27
2017-09-16T01:50:16.442Z,94.03
2017-09-16T01:50:42.570Z,93.93
2017-09-16T01:51:08.699Z,93.27
2017-09-16T01:51:34.827Z,93.55
2017-09-16T01:52:00.956Z,94.22
2017-09-16T01:52:27.084Z,93.08
2017-09-16T01:52:53.214Z,93.46
2017-09-16T01:53:19.345Z,94.32
2017-09-16T01:53:45.474Z,93.74
2017-09-16T01:54:11.603Z,93.17
2017-09-16T01:54:37.730Z,93.84
2017-09-16T01:55:03.881Z,93.74
2017-09-16T01:55:30.011Z,93.27
2017-09-16T01:55:56.139Z,94.03
2017-09-16T01:56:22.268Z,93.84
2017-09-16T01:56:48.396Z,94.03
2017-09-16T01:57:14.525Z,93.74
2017-09-16T01:57:40.655Z,94.03
2017-09-16T01:58:06.784Z,93.74
2017-09-16T01:58:32.912Z,93.74
2017-09-16T01:58:59.047Z,93.74
2017-09-16T01:59:25.200Z,93.74
2017-09-16T01:59:51.356Z,93.74
2017-09-16T02:00:17.481Z,94.22
2017-09-16T02:00:43.634Z,93.74
2017-09-16T02:01:09.762Z,93.55
2017-09-16T02:01:35.890Z,93.17
2017-09-16T02:02:02.019Z,93.46
2017-09-16T02:02:28.148Z,93.08
2017-09-16T02:02:54.277Z,93.74
2017-09-16T02:03:20.406Z,93.74
2017-09-16T02:03:46.534Z,93.37
2017-09-16T02:04:12.665Z,93.08
2017-09-16T02:04:38.792Z,93.65
2017-09-16T02:05:04.922Z,93.55
2017-09-16T02:05:31.051Z,93.93
2017-09-16T02:05:57.180Z,93.84
2017-09-16T02:06:23.309Z,93.27
2017-09-16T02:06:49.439Z,93.55
2017-09-16T02:07:15.567Z,93.55
2017-09-16T02:07:41.696Z,93.74
2017-09-16T02:08:07.849Z,94.22
2017-09-16T02:08:34.003Z,93.55
2017-09-16T02:09:00.132Z,93.93
2017-09-16T02:09:26.265Z,93.93
2017-09-16T02:09:52.393Z,93.46
2017-09-16T02:10:18.523Z,93.08
2017-09-16T02:10:44.652Z,93.08
2017-09-16T02:11:10.780Z,93.55
2017-09-16T02:11:36.910Z,93.46
2017-09-16T02:12:03.037Z,93.84
2017-09-16T02:12:29.166Z,93.74
2017-09-16T02:12:55.295Z,93.65
2017-09-16T02:13:21.424Z,94.08
2017-09-16T02:13:47.554Z,93.93
2017-09-16T02:14:13.704Z,93.84
2017-09-16T02:14:39.856Z,93.74
2017-09-16T02:15:05.982Z,93.74
2017-09-16T02:15:32.111Z,94.13
2017-09-16T02:15:58.238Z,93.84
2017-09-16T02:16:24.366Z,93.84
2017-09-16T02:16:50.496Z,93.74
2017-09-16T02:17:16.648Z,93.93
2017-09-16T02:17:42.777Z,94.13
2017-09-16T02:18:08.929Z,93.74
2017-09-16T02:18:35.057Z,93.46
2017-09-16T02:19:01.186Z,93.84
2017-09-16T02:19:27.315Z,93.74
2017-09-16T02:19:53.444Z,93.84
2017-09-16T02:20:19.573Z,94.22
2017-09-16T02:20:45.702Z,93.74
2017-09-16T02:21:11.831Z,94.03
2017-09-16T02:21:37.960Z,93.93
2017-09-16T02:22:04.088Z,94.13
2017-09-16T02:22:30.218Z,93.84
2017-09-16T02:22:56.346Z,93.74
2017-09-16T02:23:22.476Z,94.03
2017-09-16T02:23:48.603Z,94.13
2017-09-16T02:24:14.732Z,94.22
2017-09-16T02:24:40.861Z,93.84
2017-09-16T02:25:06.990Z,93.65
2017-09-16T02:25:33.119Z,93.84
2017-09-16T02:25:59.249Z,94.03
2017-09-16T02:26:25.377Z,94.03
2017-09-16T02:26:51.528Z,93.84
2017-09-16T02:27:17.656Z,94.03
2017-09-16T02:27:43.785Z,94.03
2017-09-16T02:28:09.915Z,94.03
2017-09-16T02:28:36.043Z,94.22
2017-09-16T02:29:02.174Z,94.03
2017-09-16T02:29:28.302Z,94.13
2017-09-16T02:29:54.453Z,93.93
2017-09-16T02:30:20.585Z,94.13
2017-09-16T02:30:46.710Z,94.13
2017-09-16T02:31:12.837Z,94.32
2017-09-16T02:31:38.968Z,94.03
2017-09-16T02:32:05.097Z,94.03
2017-09-16T02:32:31.247Z,94.03
2017-09-16T02:32:57.400Z,93.84
2017-09-16T02:33:23.549Z,93.74
2017-09-16T02:33:49.677Z,94.13
2017-09-16T02:34:15.805Z,93.74
2017-09-16T02:34:41.958Z,94.22
2017-09-16T02:35:08.085Z,94.22
2017-09-16T02:35:34.214Z,94.22
2017-09-16T02:36:00.394Z,93.93
2017-09-16T02:36:26.523Z,93.84
2017-09-16T02:36:52.652Z,94.03
2017-09-16T02:37:18.780Z,93.46
2017-09-16T02:37:44.910Z,94.32
2017-09-16T02:38:11.042Z,93.74
2017-09-16T02:38:37.190Z,93.74
2017-09-16T02:39:03.318Z,94.51
2017-09-16T02:39:29.448Z,94.32
2017-09-16T02:39:55.580Z,94.51
2017-09-16T02:40:21.708Z,93.74
2017-09-16T02:40:47.837Z,93.65
2017-09-16T02:41:13.966Z,93.74
2017-09-16T02:41:40.115Z,93.74
2017-09-16T02:42:06.243Z,93.93
2017-09-16T02:42:32.372Z,93.74
2017-09-16T02:42:58.501Z,94.03
2017-09-16T02:43:24.630Z,93.93
2017-09-16T02:43:50.760Z,93.84
2017-09-16T02:44:16.888Z,93.93
2017-09-16T02:44:43.018Z,93.84
2017-09-16T02:45:09.169Z,93.74
2017-09-16T02:45:35.298Z,94.51
2017-09-16T02:46:01.426Z,94.32
2017-09-16T02:46:27.557Z,94.41
2017-09-16T02:46:53.685Z,93.55
2017-09-16T02:47:19.814Z,93.74
2017-09-16T02:47:45.944Z,94.03
2017-09-16T02:48:12.071Z,93.74
2017-09-16T02:48:38.199Z,94.51
2017-09-16T02:49:04.329Z,94.13
2017-09-16T02:49:30.478Z,94.41
2017-09-16T02:49:56.607Z,94.79
2017-09-16T02:50:22.735Z,94.79
2017-09-16T02:50:48.864Z,94.32
2017-09-16T02:51:14.993Z,94.7
2017-09-16T02:51:41.122Z,94.89
2017-09-16T02:52:07.249Z,94.89
2017-09-16T02:52:33.379Z,94.51
2017-09-16T02:52:59.508Z,94.41
2017-09-16T02:53:25.637Z,93.74
2017-09-16T02:53:51.765Z,93.93
2017-09-16T02:54:17.895Z,94.03
2017-09-16T02:54:44.024Z,93.74
2017-09-16T02:55:10.153Z,94.03
2017-09-16T02:55:36.286Z,93.84
2017-09-16T02:56:02.411Z,94.03
2017-09-16T02:56:28.540Z,93.84
2017-09-16T02:56:54.669Z,94.03
2017-09-16T02:57:20.797Z,93.93
2017-09-16T02:57:46.928Z,94.22
2017-09-16T02:58:13.057Z,93.93
2017-09-16T02:58:39.186Z,94.51
2017-09-16T02:59:05.315Z,94.7
2017-09-16T02:59:31.442Z,94.79
2017-09-16T02:59:57.593Z,94.6
2017-09-16T03:00:23.723Z,94.79
2017-09-16T03:00:49.853Z,94.41
2017-09-16T03:01:16.002Z,94.79
2017-09-16T03:01:42.130Z,94.89
2017-09-16T03:02:08.258Z,95.08
2017-09-16T03:02:34.388Z,95.17
2017-09-16T03:03:00.518Z,95.27
2017-09-16T03:03:26.670Z,95.08
2017-09-16T03:03:52.799Z,94.89
2017-09-16T03:04:18.928Z,94.98
2017-09-16T03:04:45.056Z,95.08
2017-09-16T03:05:11.208Z,95.08
2017-09-16T03:05:37.337Z,94.7
2017-09-16T03:06:03.466Z,94.7
2017-09-16T03:06:29.596Z,95.08
2017-09-16T03:06:55.725Z,94.98
2017-09-16T03:07:21.856Z,95.17
2017-09-16T03:07:48.010Z,95.08
2017-09-16T03:08:14.139Z,94.98
2017-09-16T03:08:40.268Z,94.98
2017-09-16T03:09:06.397Z,95.41
2017-09-16T03:09:32.526Z,95.17
2017-09-16T03:09:58.655Z,95.27
2017-09-16T03:10:24.826Z,95.27
2017-09-16T03:10:50.936Z,95.27
2017-09-16T03:11:17.065Z,95.27
2017-09-16T03:11:43.194Z,94.98
2017-09-16T03:12:09.323Z,95.84
2017-09-16T03:12:35.475Z,95.84
2017-09-16T03:13:01.603Z,95.27
2017-09-16T03:13:27.731Z,95.27
2017-09-16T03:13:53.860Z,95.65
2017-09-16T03:14:19.988Z,95.22
2017-09-16T03:14:46.118Z,95.36
2017-09-16T03:15:12.246Z,95.7
2017-09-16T03:15:38.374Z,96.12
2017-09-16T03:16:04.504Z,95.89
2017-09-16T03:16:30.634Z,96.32
2017-09-16T03:16:56.763Z,95.46
2017-09-16T03:17:22.891Z,95.32
2017-09-16T03:17:49.019Z,95.32
2017-09-16T03:18:15.170Z,95.46
2017-09-16T03:18:41.323Z,95.41
2017-09-16T03:19:07.427Z,96.12
2017-09-16T03:19:33.556Z,96.12
2017-09-16T03:19:59.710Z,96.03
2017-09-16T03:20:25.836Z,95.94
2017-09-16T03:20:51.965Z,96.03
2017-09-16T03:21:18.093Z,95.94
2017-09-16T03:21:44.221Z,96.12
2017-09-16T03:22:10.351Z,95.94
2017-09-16T03:22:36.482Z,95.94
2017-09-16T03:23:02.609Z,96.32
2017-09-16T03:23:28.738Z,95.36
2017-09-16T03:23:54.866Z,95.36
2017-09-16T03:24:20.997Z,95.36
2017-09-16T03:24:47.125Z,95.46
2017-09-16T03:25:13.254Z,95.65
2017-09-16T03:25:39.383Z,95.65
2017-09-16T03:26:05.511Z,95.27
2017-09-16T03:26:31.641Z,95.46
2017-09-16T03:26:57.770Z,95.36
2017-09-16T03:27:23.899Z,95.65
2017-09-16T03:27:50.028Z,95.46
2017-09-16T03:28:16.157Z,95.36
2017-09-16T03:28:42.287Z,95.17
2017-09-16T03:29:08.416Z,95.46
2017-09-16T03:29:34.544Z,95.84
2017-09-16T03:30:00.674Z,95.65
2017-09-16T03:30:26.804Z,95.46
2017-09-16T03:30:52.932Z,95.27
2017-09-16T03:31:19.061Z,95.27
2017-09-16T03:31:45.191Z,95.46
2017-09-16T03:32:11.320Z,95.27
2017-09-16T03:32:37.449Z,94.89
2017-09-16T03:33:03.578Z,94.89
2017-09-16T03:33:29.730Z,94.98
2017-09-16T03:33:55.858Z,94.89
2017-09-16T03:34:21.991Z,95.36
2017-09-16T03:34:48.139Z,94.98
2017-09-16T03:35:14.266Z,95.46
2017-09-16T03:35:40.396Z,95.27
2017-09-16T03:36:06.525Z,95.84
2017-09-16T03:36:32.656Z,95.65
2017-09-16T03:36:58.785Z,95.27
2017-09-16T03:37:24.914Z,95.17
2017-09-16T03:37:51.042Z,95.46
2017-09-16T03:38:17.171Z,95.65
2017-09-16T03:38:43.300Z,95.46
2017-09-16T03:39:09.451Z,95.36
2017-09-16T03:39:35.581Z,95.46
2017-09-16T03:40:01.710Z,95.36
2017-09-16T03:40:27.837Z,95.27
2017-09-16T03:40:53.966Z,95.17
2017-09-16T03:41:20.095Z,95.08
2017-09-16T03:41:46.224Z,94.98
2017-09-16T03:42:12.353Z,95.46
2017-09-16T03:42:38.483Z,95.84
2017-09-16T03:43:04.611Z,95.65
2017-09-16T03:43:30.742Z,95.65
2017-09-16T03:43:56.870Z,95.27
2017-09-16T03:44:23.000Z,95.36
2017-09-16T03:44:49.127Z,95.46
2017-09-16T03:45:15.257Z,95.46
2017-09-16T03:45:41.386Z,95.94
2017-09-16T03:46:07.515Z,95.46
2017-09-16T03:46:33.644Z,95.84
2017-09-16T03:46:59.773Z,95.46
2017-09-16T03:47:25.902Z,95.46
2017-09-16T03:47:52.031Z,95.84
2017-09-16T03:48:18.160Z,95.46
2017-09-16T03:48:44.290Z,95.65
2017-09-16T03:49:10.419Z,95.27
2017-09-16T03:49:36.547Z,95.27
2017-09-16T03:50:02.677Z,95.08
2017-09-16T03:50:28.806Z,95.27
2017-09-16T03:50:54.935Z,95.46
2017-09-16T03:51:21.087Z,95.27
2017-09-16T03:51:47.216Z,95.17
2017-09-16T03:52:13.345Z,95.27
2017-09-16T03:52:39.473Z,95.08
2017-09-16T03:53:05.603Z,94.98
2017-09-16T03:53:31.732Z,95.27
2017-09-16T03:53:57.862Z,95.17
2017-09-16T03:54:24.012Z,95.56
2017-09-16T03:54:50.141Z,95.27
2017-09-16T03:55:16.268Z,95.17
2017-09-16T03:55:42.397Z,94.98
2017-09-16T03:56:08.527Z,94.7
2017-09-16T03:56:34.656Z,95.17
2017-09-16T03:57:00.784Z,94.89
2017-09-16T03:57:26.914Z,94.79
2017-09-16T03:57:53.043Z,94.98
2017-09-16T03:58:19.172Z,95.17
2017-09-16T03:58:45.301Z,95.65
2017-09-16T03:59:11.430Z,95.65
2017-09-16T03:59:37.560Z,95.56
2017-09-16T04:00:03.688Z,95.65
2017-09-16T04:00:29.818Z,95.17
2017-09-16T04:00:55.947Z,95.46
2017-09-16T04:01:22.076Z,95.46
2017-09-16T04:01:48.205Z,95.27
2017-09-16T04:02:14.335Z,95.08
2017-09-16T04:02:40.463Z,95.08
2017-09-16T04:03:06.616Z,95.17
2017-09-16T04:03:32.744Z,95.46
2017-09-16T04:03:58.873Z,95.56
2017-09-16T04:04:25.025Z,95.27
2017-09-16T04:04:51.154Z,95.65
2017-09-16T04:05:17.282Z,95.84
2017-09-16T04:05:43.412Z,95.65
2017-09-16T04:06:09.541Z,95.27
2017-09-16T04:06:35.670Z,95.27
2017-09-16T04:07:01.798Z,95.36
2017-09-16T04:07:27.927Z,94.98
2017-09-16T04:07:54.057Z,95.56
2017-09-16T04:08:20.186Z,95.17
2017-09-16T04:08:46.316Z,95.08
2017-09-16T04:09:12.445Z,95.27
2017-09-16T04:09:38.573Z,95.27
2017-09-16T04:10:04.704Z,95.46
2017-09-16T04:10:30.834Z,95.56
2017-09-16T04:10:56.962Z,95.65
2017-09-16T04:11:23.091Z,95.46
2017-09-16T04:11:49.220Z,95.46
2017-09-16T04:12:15.348Z,95.17
2017-09-16T04:12:41.479Z,95.17
2017-09-16T04:13:07.608Z,95.46
2017-09-16T04:13:33.737Z,95.17
2017-09-16T04:13:59.871Z,95.27
2017-09-16T04:14:25.997Z,94.89
2017-09-16T04:14:52.125Z,94.79
2017-09-16T04:15:18.254Z,94.98
2017-09-16T04:15:44.404Z,94.89
2017-09-16T04:16:10.532Z,94.89
2017-09-16T04:16:36.662Z,94.89
2017-09-16T04:17:02.791Z,95.17
2017-09-16T04:17:28.943Z,94.98
2017-09-16T04:17:55.071Z,94.98
2017-09-16T04:18:21.202Z,94.46
2017-09-16T04:18:47.330Z,94.74
2017-09-16T04:19:13.458Z,94.51
2017-09-16T04:19:39.587Z,94.98
2017-09-16T04:20:05.716Z,95.08
2017-09-16T04:20:31.845Z,95.08
2017-09-16T04:20:57.974Z,95.03
2017-09-16T04:21:24.127Z,94.74
2017-09-16T04:21:50.255Z,94.74
2017-09-16T04:22:16.384Z,94.46
2017-09-16T04:22:42.534Z,94.65
2017-09-16T04:23:08.664Z,94.46
2017-09-16T04:23:34.793Z,94.65
2017-09-16T04:24:00.921Z,94.46
2017-09-16T04:24:27.050Z,94.41
2017-09-16T04:24:53.181Z,94.74
2017-09-16T04:25:19.310Z,94.51
2017-09-16T04:25:45.440Z,94.74
2017-09-16T04:26:11.569Z,94.37
2017-09-16T04:26:37.698Z,94.84
2017-09-16T04:27:03.827Z,94.56
2017-09-16T04:27:29.956Z,94.84
2017-09-16T04:27:56.108Z,94.56
2017-09-16T04:28:22.259Z,94.56
2017-09-16T04:28:48.390Z,94.46
2017-09-16T04:29:14.559Z,94.56
2017-09-16T04:29:40.687Z,94.74
2017-09-16T04:30:06.816Z,94.56
2017-09-16T04:30:32.945Z,94.27
2017-09-16T04:30:59.074Z,93.88
2017-09-16T04:31:25.203Z,94.08
2017-09-16T04:31:51.334Z,93.98
2017-09-16T04:32:17.462Z,94.08
2017-09-16T04:32:43.592Z,93.7
2017-09-16T04:33:09.721Z,93.51
2017-09-16T04:33:35.853Z,93.79
2017-09-16T04:34:01.981Z,93.7
2017-09-16T04:34:28.109Z,94.17
2017-09-16T04:34:54.238Z,94.08
2017-09-16T04:35:20.369Z,93.6
2017-09-16T04:35:46.497Z,94.56
2017-09-16T04:36:12.628Z,94.74
2017-09-16T04:36:38.756Z,94.74
2017-09-16T04:37:04.885Z,94.74
2017-09-16T04:37:31.014Z,94.74
2017-09-16T04:37:57.142Z,94.56
2017-09-16T04:38:23.271Z,94.37
2017-09-16T04:38:49.400Z,94.27
2017-09-16T04:39:15.530Z,94.37
2017-09-16T04:39:41.660Z,94.17
2017-09-16T04:40:07.812Z,94.27
2017-09-16T04:40:33.963Z,94.6
2017-09-16T04:41:00.091Z,94.37
2017-09-16T04:41:26.222Z,94.46
2017-09-16T04:41:52.350Z,94.56
2017-09-16T04:42:18.478Z,94.74
2017-09-16T04:42:44.631Z,94.65
2017-09-16T04:43:10.756Z,94.84
2017-09-16T04:43:36.886Z,94.46
2017-09-16T04:44:03.016Z,94.46
2017-09-16T04:44:29.143Z,94.56
2017-09-16T04:44:55.274Z,94.74
2017-09-16T04:45:21.409Z,94.65
2017-09-16T04:45:47.534Z,94.56
2017-09-16T04:46:13.662Z,94.51
2017-09-16T04:46:39.791Z,94.74
2017-09-16T04:47:05.920Z,94.84
2017-09-16T04:47:32.071Z,94.74
2017-09-16T04:47:58.200Z,94.65
2017-09-16T04:48:24.330Z,94.74
2017-09-16T04:48:50.458Z,95.08
2017-09-16T04:49:16.588Z,94.7
2017-09-16T04:49:42.716Z,94.98
2017-09-16T04:50:08.847Z,94.98
2017-09-16T04:50:34.975Z,95.22
2017-09-16T04:51:01.105Z,95.36
2017-09-16T04:51:27.235Z,95.84
2017-09-16T04:51:53.366Z,95.65
2017-09-16T04:52:19.492Z,95.46
2017-09-16T04:52:45.621Z,95.27
2017-09-16T04:53:11.751Z,95.32
2017-09-16T04:53:37.880Z,94.74
2017-09-16T04:54:04.011Z,94.46
2017-09-16T04:54:30.139Z,94.56
2017-09-16T04:54:56.267Z,94.74
2017-09-16T04:55:22.396Z,94.56
2017-09-16T04:55:48.549Z,94.74
2017-09-16T04:56:14.654Z,94.56
2017-09-16T04:56:40.782Z,94.65
2017-09-16T04:57:06.912Z,94.84
2017-09-16T04:57:33.041Z,94.56
2017-09-16T04:57:59.172Z,94.7
2017-09-16T04:58:25.302Z,94.93
2017-09-16T04:58:51.433Z,94.89
2017-09-16T04:59:17.561Z,94.84
2017-09-16T04:59:43.689Z,94.93
2017-09-16T05:00:09.818Z,94.93
2017-09-16T05:00:35.948Z,94.74
2017-09-16T05:01:02.077Z,94.41
2017-09-16T05:01:28.208Z,94.98
2017-09-16T05:01:54.356Z,94.93
2017-09-16T05:02:20.485Z,94.93
2017-09-16T05:02:46.614Z,95.03
2017-09-16T05:03:12.742Z,94.84
2017-09-16T05:03:38.872Z,94.74
2017-09-16T05:04:05.003Z,94.74
2017-09-16T05:04:31.130Z,94.46
2017-09-16T05:04:57.260Z,94.56
2017-09-16T05:05:23.392Z,94.84
2017-09-16T05:05:49.520Z,94.93
2017-09-16T05:06:15.649Z,94.93
2017-09-16T05:06:41.777Z,94.46
2017-09-16T05:07:07.906Z,94.84
2017-09-16T05:07:34.035Z,94.74
2017-09-16T05:08:00.164Z,94.74
2017-09-16T05:08:26.316Z,94.56
2017-09-16T05:08:52.446Z,94.46
2017-09-16T05:09:18.575Z,94.56
2017-09-16T05:09:44.705Z,94.74
2017-09-16T05:10:10.834Z,94.84
2017-09-16T05:10:36.963Z,94.65
2017-09-16T05:11:03.092Z,94.56
2017-09-16T05:11:29.222Z,94.65
2017-09-16T05:11:55.351Z,94.56
2017-09-16T05:12:21.483Z,94.46
2017-09-16T05:12:47.630Z,94.74
2017-09-16T05:13:13.760Z,94.93
2017-09-16T05:13:39.890Z,94.84
2017-09-16T05:14:06.019Z,94.46
2017-09-16T05:14:32.148Z,94.56
2017-09-16T05:14:58.277Z,94.74
2017-09-16T05:15:24.406Z,94.56
2017-09-16T05:15:50.534Z,94.74
2017-09-16T05:16:16.664Z,94.74
2017-09-16T05:16:42.794Z,94.56
2017-09-16T05:17:08.922Z,94.56
2017-09-16T05:17:35.052Z,94.56
2017-09-16T05:18:01.181Z,94.65
2017-09-16T05:18:27.310Z,94.17
2017-09-16T05:18:53.442Z,94.37
2017-09-16T05:19:19.569Z,94.27
2017-09-16T05:19:45.699Z,94.46
2017-09-16T05:20:11.828Z,94.27
2017-09-16T05:20:37.983Z,94.27
2017-09-16T05:21:04.108Z,93.98
2017-09-16T05:21:30.237Z,94.65
2017-09-16T05:21:56.366Z,94.65
2017-09-16T05:22:22.497Z,94.27
2017-09-16T05:22:48.625Z,94.27
2017-09-16T05:23:14.754Z,94.37
2017-09-16T05:23:40.884Z,94.84
2017-09-16T05:24:07.012Z,94.74
2017-09-16T05:24:33.165Z,94.46
2017-09-16T05:24:59.292Z,94.65
2017-09-16T05:25:25.450Z,94.46
2017-09-16T05:25:51.550Z,94.84
2017-09-16T05:26:17.679Z,94.84
2017-09-16T05:26:43.812Z,94.65
2017-09-16T05:27:09.959Z,94.27
2017-09-16T05:27:36.088Z,94.46
2017-09-16T05:28:02.218Z,94.27
2017-09-16T05:28:28.347Z,94.37
2017-09-16T05:28:54.476Z,93.98
2017-09-16T05:29:20.606Z,93.98
2017-09-16T05:29:46.734Z,93.7
2017-09-16T05:30:12.864Z,93.88
2017-09-16T05:30:38.993Z,94.46
2017-09-16T05:31:05.146Z,93.98
2017-09-16T05:31:31.273Z,94.56
2017-09-16T05:31:57.402Z,94.56
2017-09-16T05:32:23.532Z,94.93
2017-09-16T05:32:49.663Z,94.65
2017-09-16T05:33:15.791Z,94.74
2017-09-16T05:33:41.921Z,94.84
2017-09-16T05:34:08.050Z,94.37
2017-09-16T05:34:34.179Z,94.84
2017-09-16T05:35:00.309Z,94.65
2017-09-16T05:35:26.444Z,94.56
2017-09-16T05:35:52.567Z,94.37
2017-09-16T05:36:18.696Z,94.27
2017-09-16T05:36:44.826Z,93.79